Terminal Aerodrome Forecast
Issued by NWS Wilmington, OH

Current Version | Previous Version | Text Only | Print | Product List | Glossary Off
Versions: 1 2 3 4 5 6 7 8 9 10 11 12 13 14

000
FTUS41 KILN 230541
TAFILN
TAF
KILN 230541Z 2306/2406 07008KT P6SM FEW150
     FM231600 12010G16KT P6SM SCT100
     FM232000 14010KT P6SM BKN090
     FM240400 16009KT P6SM BKN070 WS020/21045KT=

USA.gov is the U.S. government's official web portal to all federal, state and local government web resources and services.